Time;durP1;ratioP1;P1;durP2;ratioP2;P2;SDS_P1;SDS_P2;PMS_P1;PMS_P2;Temp;Humidity;BMP_temperature;BMP_pressure;BME280_temperature;BME280_humidity;BME280_pressure;Samples;Min_cycle;Max_cycle;Signal;HPM_P1;HPM_P2
2022/08/18 00:01:21;;;;;;;21.35;13.25;;;16.20;99.90;;;;;;5030440;28;20168;-44
2022/08/18 00:03:48;;;;;;;17.90;13.25;;;16.20;99.90;;;;;;5030599;28;20045;-47
2022/08/18 00:06:15;;;;;;;19.90;14.60;;;16.10;99.90;;;;;;5030746;28;20100;-46
2022/08/18 00:08:41;;;;;;;18.75;13.63;;;16.10;99.90;;;;;;5030928;28;20103;-49
2022/08/18 00:11:06;;;;;;;20.33;14.02;;;16.10;99.90;;;;;;5030393;28;20492;-50
2022/08/18 00:13:33;;;;;;;18.63;13.30;;;16.10;99.90;;;;;;5030384;28;20414;-52
2022/08/18 00:15:58;;;;;;;23.10;14.40;;;16.00;99.90;;;;;;5030900;28;20025;-50
2022/08/18 00:18:24;;;;;;;16.95;13.07;;;16.00;99.90;;;;;;5030782;28;20068;-47
2022/08/18 00:20:50;;;;;;;21.52;13.82;;;16.00;99.90;;;;;;5030265;28;20076;-49
2022/08/18 00:23:15;;;;;;;17.55;12.93;;;16.10;99.90;;;;;;5030674;28;20040;-47
2022/08/18 00:25:41;;;;;;;18.33;12.70;;;16.10;99.90;;;;;;5030529;28;20056;-44
2022/08/18 00:28:07;;;;;;;20.30;12.95;;;16.10;99.90;;;;;;5030720;28;20061;-47
2022/08/18 00:30:33;;;;;;;19.02;12.68;;;16.10;99.90;;;;;;5033708;28;20018;-47
2022/08/18 00:33:00;;;;;;;20.33;13.38;;;16.20;99.90;;;;;;5034528;28;20029;-50
2022/08/18 00:35:34;;;;;;;21.98;15.77;;;16.20;99.90;;;;;;5033317;28;20086;-44
2022/08/18 00:38:05;;;;;;;17.52;13.60;;;16.30;99.90;;;;;;5034474;28;20060;-48
2022/08/18 00:40:38;;;;;;;18.95;12.38;;;16.30;99.90;;;;;;5034301;28;20025;-42
2022/08/18 00:43:07;;;;;;;16.00;11.48;;;16.30;99.90;;;;;;5027576;28;20032;-42
2022/08/18 00:45:39;;;;;;;20.58;12.23;;;16.30;99.90;;;;;;5033963;28;20044;-45
2022/08/18 00:48:07;;;;;;;16.33;11.35;;;16.30;99.90;;;;;;5034282;28;20021;-43
2022/08/18 00:50:53;;;;;;;13.10;10.32;;;16.30;99.90;;;;;;5033998;28;20040;-44
2022/08/18 00:53:25;;;;;;;15.98;10.07;;;16.30;99.90;;;;;;5033842;28;20087;-50
2022/08/18 00:55:52;;;;;;;16.42;10.52;;;16.20;99.90;;;;;;5034144;28;20029;-45
2022/08/18 00:58:25;;;;;;;13.40;9.85;;;16.20;99.90;;;;;;5034254;28;20033;-47
2022/08/18 01:00:52;;;;;;;17.00;10.20;;;16.10;99.90;;;;;;5033685;28;20026;-48
2022/08/18 01:03:20;;;;;;;17.10;11.43;;;16.10;99.90;;;;;;5033508;28;20056;-52
2022/08/18 01:06:20;;;;;;;16.45;11.57;;;16.10;99.90;;;;;;5034018;28;20021;-55
2022/08/18 01:08:46;;;;;;;16.85;11.75;;;16.10;99.90;;;;;;5033701;28;20388;-54
2022/08/18 01:11:12;;;;;;;15.23;11.48;;;16.00;99.90;;;;;;5033509;28;20451;-47
2022/08/18 01:13:40;;;;;;;17.33;11.65;;;16.10;99.90;;;;;;5033645;28;20042;-55
2022/08/18 01:21:50;;;;;;;20.45;12.02;;;16.00;99.90;;;;;;5033460;28;20447;-51
2022/08/18 01:24:18;;;;;;;15.52;10.75;;;16.00;99.90;;;;;;5033641;28;20103;-49
2022/08/18 01:26:48;;;;;;;16.60;10.35;;;15.90;99.90;;;;;;5033582;28;20079;-51
2022/08/18 01:29:16;;;;;;;16.42;11.00;;;15.70;99.90;;;;;;5033436;28;20024;-46
2022/08/18 01:31:55;;;;;;;16.13;10.60;;;15.70;99.90;;;;;;5033331;28;20033;-54
2022/08/18 01:34:23;;;;;;;17.33;11.70;;;15.70;99.90;;;;;;5033363;28;20105;-46
2022/08/18 01:36:51;;;;;;;18.05;12.35;;;15.60;99.90;;;;;;5033517;28;20029;-49
2022/08/18 01:39:18;;;;;;;16.83;11.70;;;15.60;99.90;;;;;;5033306;28;20088;-48
2022/08/18 01:41:44;;;;;;;17.73;11.30;;;15.60;99.90;;;;;;5033256;28;20013;-43
2022/08/18 01:44:10;;;;;;;18.25;11.73;;;15.60;99.90;;;;;;5033191;28;20021;-51
2022/08/18 01:46:39;;;;;;;16.00;11.20;;;15.60;99.90;;;;;;5033074;28;20024;-44
2022/08/18 01:49:07;;;;;;;17.38;11.80;;;15.60;99.90;;;;;;5033303;28;20029;-54
2022/08/18 01:51:33;;;;;;;16.95;11.18;;;15.60;99.90;;;;;;5033045;28;20037;-49
2022/08/18 01:54:00;;;;;;;18.27;11.43;;;15.60;99.90;;;;;;5032997;28;20037;-47
2022/08/18 01:56:26;;;;;;;20.02;12.60;;;15.60;99.90;;;;;;5033098;28;20029;-45
2022/08/18 01:58:53;;;;;;;20.33;12.70;;;15.60;99.90;;;;;;5033038;28;20182;-50
2022/08/18 02:01:21;;;;;;;16.75;12.27;;;15.60;99.90;;;;;;5032347;28;20024;-50
2022/08/18 02:03:54;;;;;;;18.42;11.82;;;15.60;99.90;;;;;;5032577;28;20067;-49
2022/08/18 02:06:20;;;;;;;15.52;10.98;;;15.60;99.90;;;;;;5032555;28;20473;-50
2022/08/18 02:08:46;;;;;;;17.35;10.63;;;15.60;99.90;;;;;;5032668;28;20441;-46
2022/08/18 02:11:12;;;;;;;19.25;10.80;;;15.60;99.90;;;;;;5032658;28;20072;-53
2022/08/18 02:13:39;;;;;;;17.58;11.55;;;15.60;99.90;;;;;;5032685;28;20046;-46
2022/08/18 02:16:06;;;;;;;14.70;10.93;;;15.60;99.90;;;;;;5032686;28;20477;-42
2022/08/18 02:18:34;;;;;;;16.10;10.20;;;15.60;99.90;;;;;;5032721;28;20071;-43
2022/08/18 02:21:07;;;;;;;17.98;10.75;;;15.60;99.90;;;;;;5032678;28;20025;-43
2022/08/18 02:23:33;;;;;;;15.00;10.05;;;15.60;99.90;;;;;;5032633;28;20495;-43
2022/08/18 02:26:02;;;;;;;17.40;10.77;;;15.70;99.90;;;;;;5032413;28;20116;-56
2022/08/18 02:28:27;;;;;;;19.33;13.13;;;15.70;99.90;;;;;;5032520;28;20021;-55
2022/08/18 02:30:53;;;;;;;17.98;12.48;;;15.80;99.90;;;;;;5031993;28;20025;-53
2022/08/18 02:33:18;;;;;;;22.55;13.70;;;15.80;99.90;;;;;;5032420;28;20064;-50
2022/08/18 02:35:52;;;;;;;21.77;13.85;;;15.90;99.90;;;;;;5032009;28;20064;-46
2022/08/18 02:38:18;;;;;;;22.13;13.20;;;16.00;99.90;;;;;;5032204;28;20523;-48
2022/08/18 02:40:45;;;;;;;18.33;12.52;;;15.90;99.90;;;;;;5030824;28;20029;-52
2022/08/18 02:43:11;;;;;;;19.45;12.55;;;16.00;99.90;;;;;;5032197;28;20037;-52
2022/08/18 02:45:38;;;;;;;19.13;11.60;;;16.10;99.90;;;;;;5032156;28;20014;-43
2022/08/18 02:48:05;;;;;;;19.77;12.90;;;16.20;99.90;;;;;;5032003;28;20112;-43
2022/08/18 02:50:30;;;;;;;19.20;12.73;;;16.20;99.90;;;;;;5031915;28;20163;-43
2022/08/18 02:52:56;;;;;;;19.67;12.90;;;16.20;99.90;;;;;;5031387;28;20029;-48
2022/08/18 02:55:25;;;;;;;22.83;14.23;;;16.20;99.90;;;;;;5031819;28;20029;-44
2022/08/18 02:57:51;;;;;;;20.90;13.48;;;16.20;99.90;;;;;;5031957;28;20033;-45
2022/08/18 03:00:18;;;;;;;25.63;14.57;;;16.30;99.90;;;;;;5031615;28;20035;-48
2022/08/18 03:02:52;;;;;;;20.02;13.40;;;16.30;99.90;;;;;;5031259;28;20108;-49
2022/08/18 03:05:18;;;;;;;19.08;13.48;;;16.40;99.90;;;;;;5031711;28;20113;-56
2022/08/18 03:07:44;;;;;;;19.20;12.35;;;16.40;99.90;;;;;;5031943;28;20032;-49
2022/08/18 03:10:10;;;;;;;19.52;12.10;;;16.40;99.90;;;;;;5031747;28;20104;-46
2022/08/18 03:12:36;;;;;;;17.70;12.23;;;16.40;99.90;;;;;;5031388;28;20042;-45
2022/08/18 03:15:03;;;;;;;20.55;11.70;;;16.40;99.90;;;;;;5031451;28;20044;-51
2022/08/18 03:17:30;;;;;;;18.10;11.68;;;16.50;99.90;;;;;;5031207;28;20380;-47
2022/08/18 03:19:56;;;;;;;19.73;13.00;;;16.50;99.90;;;;;;5031521;28;20044;-50
2022/08/18 03:22:22;;;;;;;19.92;13.02;;;16.50;99.90;;;;;;5031273;28;20485;-45
2022/08/18 03:24:47;;;;;;;20.35;14.07;;;16.50;99.90;;;;;;5031477;28;20064;-52
2022/08/18 03:27:13;;;;;;;24.58;15.90;;;16.50;99.90;;;;;;5031231;28;20032;-51
2022/08/18 03:29:39;;;;;;;26.83;15.65;;;16.50;99.90;;;;;;5031061;28;20075;-49
2022/08/18 03:32:07;;;;;;;26.92;17.08;;;16.60;99.90;;;;;;5031306;28;20461;-46
2022/08/18 03:34:33;;;;;;;24.58;16.42;;;16.70;99.90;;;;;;5031218;28;20112;-47
2022/08/18 03:36:59;;;;;;;22.58;15.80;;;16.60;99.90;;;;;;5031313;28;20033;-48
2022/08/18 03:39:27;;;;;;;21.92;14.52;;;16.60;99.90;;;;;;5031176;28;20059;-45
2022/08/18 03:41:53;;;;;;;21.77;14.48;;;16.60;99.90;;;;;;5031250;28;20048;-49
2022/08/18 03:44:21;;;;;;;21.60;14.38;;;16.60;99.90;;;;;;5031287;28;20500;-46
2022/08/18 03:46:47;;;;;;;24.17;15.10;;;16.50;99.90;;;;;;5031041;28;20029;-43
2022/08/18 03:49:13;;;;;;;22.42;14.60;;;16.50;99.90;;;;;;5031409;28;20056;-43
2022/08/18 03:51:48;;;;;;;21.95;13.88;;;16.50;99.90;;;;;;5030918;28;20530;-47
2022/08/18 03:54:16;;;;;;;24.33;14.38;;;16.50;99.90;;;;;;5030001;28;20033;-51
2022/08/18 03:56:43;;;;;;;20.30;13.38;;;16.50;99.90;;;;;;5030541;28;20014;-51
2022/08/18 03:59:18;;;;;;;22.52;15.52;;;16.50;99.90;;;;;;5030831;28;20096;-43
2022/08/18 04:01:45;;;;;;;20.33;14.32;;;16.50;99.90;;;;;;5029314;28;20021;-49
2022/08/18 04:04:15;;;;;;;21.95;15.77;;;16.50;99.90;;;;;;5031844;28;20028;-43
2022/08/18 04:06:44;;;;;;;22.75;15.48;;;16.50;99.90;;;;;;5035045;28;20032;-44
2022/08/18 04:09:13;;;;;;;25.30;15.52;;;16.50;99.90;;;;;;5034764;28;20064;-45
2022/08/18 04:11:43;;;;;;;25.85;15.07;;;16.40;99.90;;;;;;5034752;28;20046;-44
2022/08/18 04:14:11;;;;;;;22.50;15.43;;;16.40;99.90;;;;;;5034948;28;20037;-45
2022/08/18 04:16:38;;;;;;;22.55;14.57;;;16.40;99.90;;;;;;5034969;28;20100;-45
2022/08/18 04:19:04;;;;;;;22.33;14.73;;;16.40;99.90;;;;;;5034811;28;20503;-49
2022/08/18 04:21:35;;;;;;;28.70;16.90;;;16.40;99.90;;;;;;5034783;28;20053;-49
2022/08/18 04:24:03;;;;;;;22.25;15.57;;;16.40;99.90;;;;;;5034638;28;20029;-46
2022/08/18 04:26:34;;;;;;;23.45;16.30;;;16.40;99.90;;;;;;5034667;28;20029;-48
2022/08/18 04:29:01;;;;;;;20.65;14.85;;;16.50;99.90;;;;;;5034715;28;20522;-55
2022/08/18 04:31:28;;;;;;;21.48;15.05;;;16.50;99.90;;;;;;5034162;28;20030;-49
2022/08/18 04:33:55;;;;;;;23.77;15.70;;;16.50;99.90;;;;;;5034509;28;20044;-49
2022/08/18 04:36:21;;;;;;;25.60;16.88;;;16.50;99.90;;;;;;5034424;28;20108;-49
2022/08/18 04:38:47;;;;;;;28.48;16.38;;;16.60;99.90;;;;;;5034124;28;20209;-49
2022/08/18 04:41:13;;;;;;;26.73;16.80;;;16.60;99.90;;;;;;5034320;28;20025;-48
2022/08/18 04:43:40;;;;;;;25.73;17.40;;;16.60;99.90;;;;;;5034195;28;20044;-51
2022/08/18 04:46:07;;;;;;;26.10;16.98;;;16.60;99.90;;;;;;5034212;28;20022;-44
2022/08/18 04:48:35;;;;;;;25.75;16.38;;;16.70;99.90;;;;;;5033937;28;20461;-43
2022/08/18 04:51:07;;;;;;;28.27;16.73;;;16.70;99.90;;;;;;5034205;28;20021;-44
2022/08/18 04:53:43;;;;;;;23.40;16.60;;;16.60;99.90;;;;;;5033886;28;20084;-43
2022/08/18 04:56:20;;;;;;;25.63;15.82;;;16.70;99.90;;;;;;5034147;28;20075;-52
2022/08/18 04:58:50;;;;;;;23.92;16.00;;;16.70;99.90;;;;;;5033820;28;20495;-43
2022/08/18 05:01:17;;;;;;;34.10;18.75;;;16.70;99.90;;;;;;5033668;28;20021;-47
2022/08/18 05:03:43;;;;;;;28.08;17.75;;;16.70;99.90;;;;;;5033757;28;20029;-49
2022/08/18 05:06:09;;;;;;;28.70;17.77;;;16.80;99.90;;;;;;5034003;28;20028;-46
2022/08/18 05:08:35;;;;;;;27.10;17.27;;;16.80;99.90;;;;;;5033786;28;20446;-46
2022/08/18 05:11:01;;;;;;;28.85;17.63;;;16.80;99.90;;;;;;5033729;28;20088;-48
2022/08/18 05:13:27;;;;;;;25.85;18.55;;;16.90;99.90;;;;;;5033736;28;20037;-49
2022/08/18 05:15:57;;;;;;;28.13;17.38;;;16.90;99.90;;;;;;5033215;28;20112;-49
2022/08/18 05:18:23;;;;;;;33.75;19.67;;;16.90;99.90;;;;;;5033714;28;20025;-44
2022/08/18 05:20:51;;;;;;;30.77;19.05;;;17.00;99.90;;;;;;5033566;28;20017;-43
2022/08/18 05:23:17;;;;;;;29.58;18.58;;;17.00;99.90;;;;;;5033768;28;20063;-45
2022/08/18 05:25:43;;;;;;;25.58;17.75;;;17.10;99.90;;;;;;5033644;28;20268;-48
2022/08/18 05:28:09;;;;;;;25.17;15.98;;;17.20;99.90;;;;;;5033638;28;20380;-44
2022/08/18 05:30:35;;;;;;;23.30;15.38;;;17.10;99.90;;;;;;5033336;28;20600;-50
2022/08/18 05:33:02;;;;;;;21.17;14.55;;;17.10;99.90;;;;;;5033205;28;20116;-46
2022/08/18 05:35:41;;;;;;;22.75;15.85;;;17.10;99.90;;;;;;5033419;28;20389;-44
2022/08/18 05:38:14;;;;;;;;;;;17.10;99.90;;;;;;5033574;28;20021;-49
2022/08/18 05:40:40;;;;;;;26.25;15.85;;;17.10;99.90;;;;;;5033235;28;20280;-52
2022/08/18 05:43:07;;;;;;;24.15;16.30;;;17.20;99.90;;;;;;5033196;28;20391;-46
2022/08/18 05:45:33;;;;;;;30.13;16.98;;;17.20;99.90;;;;;;5033254;28;20040;-49
2022/08/18 05:48:00;;;;;;;24.15;15.98;;;17.30;99.90;;;;;;5033166;28;20480;-48
2022/08/18 05:50:27;;;;;;;20.38;14.73;;;17.30;99.90;;;;;;5033208;28;20467;-56
2022/08/18 05:52:56;;;;;;;21.75;13.88;;;17.30;99.90;;;;;;5032815;28;20044;-49
2022/08/18 05:58:50;;;;;;;20.67;13.07;;;17.30;99.90;;;;;;5032804;28;20124;-45
2022/08/18 06:01:24;;;;;;;25.10;15.60;;;17.40;99.90;;;;;;5031945;28;20029;-50
2022/08/18 06:04:06;;;;;;;25.23;15.90;;;17.50;99.90;;;;;;5032727;28;20013;-47
2022/08/18 06:06:35;;;;;;;23.73;16.23;;;17.60;99.90;;;;;;5032909;28;20021;-44
2022/08/18 06:09:16;;;;;;;33.83;17.37;;;17.70;99.90;;;;;;5032624;28;20032;-50
2022/08/18 06:11:43;;;;;;;23.80;15.95;;;17.80;99.90;;;;;;5032513;28;20496;-50
2022/08/18 06:14:09;;;;;;;35.90;23.23;;;17.90;99.90;;;;;;5032181;28;20150;-49
2022/08/18 06:17:02;;;;;;;28.23;16.63;;;18.00;99.90;;;;;;5032464;28;20028;-45
2022/08/18 06:19:48;;;;;;;20.23;15.45;;;18.10;99.90;;;;;;5032532;28;20453;-55
2022/08/18 06:22:46;;;;;;;25.45;15.73;;;18.30;99.90;;;;;;5032520;28;20018;-45
2022/08/18 06:25:46;;;;;;;21.00;15.25;;;18.30;99.90;;;;;;5032095;28;20069;-49
2022/08/18 06:28:15;;;;;;;19.92;14.30;;;18.40;99.90;;;;;;5018910;28;20092;-53
2022/08/18 06:30:40;;;;;;;22.67;14.85;;;18.50;99.90;;;;;;5032000;28;20021;-52
2022/08/18 06:33:11;;;;;;;23.33;15.07;;;18.50;99.90;;;;;;5032091;28;20031;-54
2022/08/18 06:35:43;;;;;;;24.40;16.17;;;18.70;99.90;;;;;;5032279;28;20033;-53
2022/08/18 06:38:39;;;;;;;22.58;14.85;;;19.20;99.90;;;;;;5032200;28;20021;-53
2022/08/18 06:41:31;;;;;;;22.98;14.70;;;19.80;99.90;;;;;;5032002;28;20079;-51
2022/08/18 06:44:11;;;;;;;18.52;14.45;;;20.40;99.90;;;;;;5032205;28;20503;-44
2022/08/18 06:47:03;;;;;;;21.38;13.90;;;21.00;99.90;;;;;;5032926;28;20029;-45
2022/08/18 06:50:10;;;;;;;16.80;13.20;;;21.50;99.90;;;;;;5032028;28;20079;-45
2022/08/18 06:52:52;;;;;;;0.00;0.00;;;21.90;99.90;;;;;;5029775;28;20053;-51
2022/08/18 06:55:32;;;;;;;0.00;0.00;;;22.10;99.90;;;;;;5033147;28;20036;-44
2022/08/18 06:58:00;;;;;;;0.00;0.00;;;22.20;99.90;;;;;;5030718;28;20033;-44
2022/08/18 07:00:32;;;;;;;20.03;13.10;;;22.20;99.90;;;;;;5026580;28;20029;-45
2022/08/18 07:03:10;;;;;;;15.10;12.82;;;22.30;99.90;;;;;;5027113;28;20021;-50
2022/08/18 07:05:37;;;;;;;17.63;13.05;;;22.40;99.90;;;;;;5029282;28;20603;-52
2022/08/18 07:08:33;;;;;;;15.98;13.32;;;22.30;99.90;;;;;;5029592;28;20530;-50
2022/08/18 07:11:21;;;;;;;16.58;12.60;;;22.20;99.90;;;;;;5030760;28;20057;-49
2022/08/18 07:13:56;;;;;;;16.92;12.50;;;22.10;99.90;;;;;;5027547;28;20049;-45
2022/08/18 07:16:30;;;;;;;13.68;12.20;;;22.40;99.90;;;;;;5030362;28;20049;-54
2022/08/18 07:19:15;;;;;;;15.35;12.73;;;22.50;99.90;;;;;;5029271;28;20113;-47
2022/08/18 07:21:43;;;;;;;16.92;13.13;;;23.00;99.90;;;;;;5029464;28;20032;-51
2022/08/18 07:24:26;;;;;;;17.80;13.27;;;23.30;99.90;;;;;;5027046;28;20480;-52
2022/08/18 07:27:04;;;;;;;18.20;14.20;;;23.10;99.90;;;;;;5028471;28;20192;-45
2022/08/18 07:29:34;;;;;;;16.15;12.88;;;22.70;99.90;;;;;;5027984;28;20029;-49
2022/08/18 07:32:15;;;;;;;18.45;13.43;;;22.60;99.90;;;;;;5028794;28;20025;-45
2022/08/18 07:34:56;;;;;;;17.27;13.50;;;22.60;99.90;;;;;;5029391;28;20034;-53
2022/08/18 07:37:36;;;;;;;22.35;14.23;;;22.70;99.90;;;;;;5026712;28;20108;-54
2022/08/18 07:40:15;;;;;;;15.90;13.43;;;23.10;99.90;;;;;;5020929;28;20070;-48
2022/08/18 07:42:57;;;;;;;17.10;13.15;;;23.50;99.90;;;;;;5025180;28;20029;-48
2022/08/18 07:45:36;;;;;;;15.90;13.35;;;23.90;99.90;;;;;;5013759;28;20060;-46
2022/08/18 07:48:29;;;;;;;15.15;13.38;;;24.60;99.90;;;;;;5026549;28;20091;-45
2022/08/18 07:51:11;;;;;;;15.05;12.95;;;24.50;99.90;;;;;;5025326;28;20036;-44
2022/08/18 07:54:01;;;;;;;17.08;14.70;;;24.20;99.90;;;;;;5022093;28;20030;-49
2022/08/18 07:56:38;;;;;;;18.17;14.75;;;23.70;99.90;;;;;;5029359;28;20044;-44
2022/08/18 07:59:10;;;;;;;18.23;15.45;;;23.20;99.90;;;;;;5035278;28;20571;-44
2022/08/18 08:01:40;;;;;;;18.65;16.02;;;22.60;99.90;;;;;;5033314;28;20059;-43
2022/08/18 08:04:15;;;;;;;19.02;15.40;;;22.10;99.90;;;;;;5030847;28;20163;-43
2022/08/18 08:06:52;;;;;;;19.60;15.95;;;21.90;99.90;;;;;;5034490;28;20074;-44
2022/08/18 08:09:38;;;;;;;22.67;15.68;;;22.00;99.90;;;;;;5025681;28;20057;-45
2022/08/18 08:12:36;;;;;;;18.52;16.08;;;21.90;99.90;;;;;;5025650;28;20049;-47
2022/08/18 08:15:05;;;;;;;17.70;14.65;;;21.70;99.90;;;;;;5020707;28;20397;-45
2022/08/18 08:18:01;;;;;;;17.88;14.70;;;21.50;99.90;;;;;;5026483;28;20427;-53
2022/08/18 08:20:34;;;;;;;19.10;14.45;;;21.40;99.90;;;;;;5030160;28;20036;-47
2022/08/18 08:23:03;;;;;;;19.15;15.93;;;21.40;99.90;;;;;;5028945;28;20033;-45
2022/08/18 08:25:31;;;;;;;19.88;16.08;;;21.40;99.90;;;;;;5025505;28;20116;-46
2022/08/18 08:28:23;;;;;;;18.83;15.35;;;21.30;99.90;;;;;;5027800;28;20040;-52
2022/08/18 08:31:01;;;;;;;19.38;15.60;;;21.20;99.90;;;;;;5019456;28;20049;-53
2022/08/18 08:33:40;;;;;;;22.92;18.35;;;21.10;99.90;;;;;;5029702;28;20107;-45
2022/08/18 08:36:26;;;;;;;23.38;18.27;;;20.90;99.90;;;;;;5031691;28;20025;-49
2022/08/18 08:38:59;;;;;;;22.50;17.73;;;20.90;99.90;;;;;;5027084;28;20113;-44
2022/08/18 08:41:34;;;;;;;20.95;16.77;;;20.80;99.90;;;;;;5033534;28;20028;-44
2022/08/18 08:44:25;;;;;;;22.13;16.40;;;20.80;99.90;;;;;;5032808;28;20071;-46
2022/08/18 08:46:57;;;;;;;21.30;16.92;;;20.90;99.90;;;;;;5031857;28;20063;-45
2022/08/18 08:49:41;;;;;;;20.27;15.45;;;21.00;99.90;;;;;;5032334;28;20489;-44
2022/08/18 08:52:23;;;;;;;21.08;17.13;;;21.20;99.90;;;;;;5033834;28;20452;-52
2022/08/18 08:54:55;;;;;;;20.63;16.98;;;21.50;99.90;;;;;;5023886;28;20030;-47
2022/08/18 08:57:28;;;;;;;21.23;16.90;;;22.50;99.90;;;;;;5033680;28;20021;-56
2022/08/18 08:59:56;;;;;;;19.95;16.27;;;23.10;99.90;;;;;;5028678;28;20026;-51
2022/08/18 09:02:31;;;;;;;17.75;15.10;;;23.60;99.90;;;;;;5033580;28;20029;-54
2022/08/18 09:05:07;;;;;;;17.08;14.55;;;24.00;99.90;;;;;;5035892;28;20510;-44
2022/08/18 09:07:32;;;;;;;18.10;13.70;;;24.60;99.90;;;;;;5036186;28;20123;-46
2022/08/18 09:10:21;;;;;;;14.60;13.10;;;24.80;99.90;;;;;;5037612;28;20510;-52
2022/08/18 09:12:55;;;;;;;16.70;13.48;;;25.50;99.90;;;;;;5037106;28;20098;-47
2022/08/18 09:15:39;;;;;;;15.02;12.68;;;26.40;99.90;;;;;;5038844;28;20045;-47
2022/08/18 09:18:05;;;;;;;12.32;10.88;;;27.00;98.40;;;;;;5033072;28;20072;-45
2022/08/18 09:20:54;;;;;;;13.13;11.45;;;27.40;97.10;;;;;;5040668;28;20056;-50
2022/08/18 09:23:42;;;;;;;12.00;10.77;;;28.20;97.20;;;;;;5034481;28;20021;-41
2022/08/18 09:26:22;;;;;;;11.23;9.63;;;28.50;97.90;;;;;;5027019;28;20026;-48
2022/08/18 09:28:58;;;;;;;10.38;9.02;;;29.20;94.90;;;;;;5029317;28;20263;-46
2022/08/18 09:31:27;;;;;;;11.35;10.25;;;29.50;93.50;;;;;;5031773;28;20026;-50
2022/08/18 09:34:18;;;;;;;12.55;10.77;;;29.90;93.00;;;;;;5031313;28;20037;-46
2022/08/18 09:36:59;;;;;;;18.17;14.07;;;30.10;92.10;;;;;;5030765;28;20485;-45
2022/08/18 09:42:36;;;;;;;17.77;15.43;;;28.70;92.60;;;;;;5030999;28;20164;-42
2022/08/18 09:45:06;;;;;;;16.15;14.45;;;28.10;92.90;;;;;;5031062;28;20060;-41
2022/08/18 09:47:32;;;;;;;20.13;15.63;;;28.10;95.80;;;;;;5031485;28;20497;-41
2022/08/18 09:50:04;;;;;;;21.95;19.13;;;28.20;92.60;;;;;;5030509;28;20022;-41
2022/08/18 09:52:33;;;;;;;21.83;19.23;;;27.80;93.60;;;;;;5029213;28;20025;-42
2022/08/18 09:55:04;;;;;;;19.17;16.85;;;27.40;94.00;;;;;;5029231;28;20057;-43
2022/08/18 09:57:38;;;;;;;20.15;16.73;;;26.80;95.40;;;;;;5031131;28;20412;-42
2022/08/18 10:00:18;;;;;;;17.35;14.27;;;26.80;98.30;;;;;;5032254;28;20701;-43
2022/08/18 10:02:46;;;;;;;17.02;13.38;;;27.00;96.30;;;;;;5026052;28;20034;-46
2022/08/18 10:05:18;;;;;;;15.18;13.50;;;27.20;95.30;;;;;;5032253;28;20120;-44
2022/08/18 10:08:02;;;;;;;15.95;13.13;;;27.50;96.00;;;;;;5032718;28;20029;-46
2022/08/18 10:10:40;;;;;;;14.32;12.60;;;27.50;94.50;;;;;;5031977;28;20021;-45
2022/08/18 10:13:16;;;;;;;15.82;12.65;;;27.50;94.70;;;;;;5030525;28;20065;-55
2022/08/18 10:15:47;;;;;;;16.40;14.52;;;27.20;95.50;;;;;;5031779;28;20051;-45
2022/08/18 10:18:34;;;;;;;17.65;14.88;;;27.10;94.00;;;;;;5028044;28;20029;-46
2022/08/18 10:21:06;;;;;;;16.55;14.43;;;27.40;95.40;;;;;;5030743;28;20473;-52
2022/08/18 10:23:52;;;;;;;15.27;13.65;;;27.20;95.20;;;;;;5031661;28;20029;-43
2022/08/18 10:26:30;;;;;;;16.77;14.18;;;27.00;95.70;;;;;;5030056;28;20071;-45
2022/08/18 10:28:59;;;;;;;19.03;14.77;;;26.70;95.70;;;;;;5031559;28;20056;-46
2022/08/18 10:31:29;;;;;;;16.88;14.77;;;26.30;96.80;;;;;;5031466;28;20480;-51
2022/08/18 10:34:08;;;;;;;18.23;14.48;;;25.90;97.50;;;;;;5031256;28;20052;-43
2022/08/18 10:36:59;;;;;;;16.40;13.23;;;26.00;99.90;;;;;;5030315;28;20419;-46
2022/08/18 10:39:37;;;;;;;16.35;14.07;;;26.50;95.80;;;;;;5031455;28;20029;-45
2022/08/18 10:42:16;;;;;;;15.68;13.82;;;27.00;96.90;;;;;;5033261;28;20061;-45
2022/08/18 10:44:45;;;;;;;15.75;13.25;;;27.20;95.80;;;;;;5030089;28;20036;-42
2022/08/18 10:47:28;;;;;;;14.88;13.15;;;27.00;95.20;;;;;;5036192;28;20496;-40
2022/08/18 10:49:55;;;;;;;15.57;13.38;;;26.60;95.90;;;;;;5038103;28;20025;-45
2022/08/18 10:52:26;;;;;;;15.98;14.13;;;26.20;97.10;;;;;;5033556;28;20033;-53
2022/08/18 10:54:55;;;;;;;14.45;13.02;;;26.10;96.40;;;;;;5027807;28;20044;-52
2022/08/18 10:57:29;;;;;;;18.70;15.15;;;26.40;96.30;;;;;;5032698;28;20048;-51
2022/08/18 11:00:18;;;;;;;17.05;13.95;;;26.40;95.70;;;;;;5030017;28;20037;-44
2022/08/18 11:03:02;;;;;;;;;;;26.00;97.30;;;;;;5018825;28;20036;-47
2022/08/18 11:05:29;;;;;;;19.98;14.95;;;25.90;96.20;;;;;;5031299;28;19952;-52
2022/08/18 11:08:02;;;;;;;18.25;15.52;;;25.60;97.50;;;;;;5029884;28;20037;-41
2022/08/18 11:10:42;;;;;;;19.05;14.35;;;25.70;97.70;;;;;;5026883;28;20052;-42
2022/08/18 11:13:24;;;;;;;18.25;15.02;;;26.40;99.40;;;;;;5029567;28;20029;-41
2022/08/18 11:16:03;;;;;;;17.45;14.45;;;27.30;96.50;;;;;;5029306;28;20040;-43
2022/08/18 11:18:35;;;;;;;16.85;13.98;;;27.70;93.00;;;;;;5029213;28;20025;-49
2022/08/18 11:21:31;;;;;;;17.23;14.75;;;27.80;94.60;;;;;;5029360;28;20064;-46
2022/08/18 11:24:20;;;;;;;19.63;15.57;;;28.00;94.00;;;;;;5028512;28;20044;-49
2022/08/18 11:26:54;;;;;;;17.35;14.98;;;27.70;93.60;;;;;;5028662;28;20025;-47
2022/08/18 11:29:30;;;;;;;20.25;15.35;;;27.20;94.00;;;;;;5029825;28;20026;-50
2022/08/18 11:32:20;;;;;;;19.10;15.75;;;27.60;94.60;;;;;;5030208;28;20038;-47
2022/08/18 11:34:51;;;;;;;14.68;12.63;;;28.20;94.90;;;;;;5028584;28;20452;-44
2022/08/18 11:37:42;;;;;;;16.40;13.43;;;28.50;92.10;;;;;;5025167;28;20500;-50
2022/08/18 11:40:23;;;;;;;17.60;12.80;;;28.90;92.80;;;;;;5030277;28;20087;-48
2022/08/18 11:43:00;;;;;;;14.93;12.27;;;29.30;91.90;;;;;;5030299;28;20029;-46
2022/08/18 11:45:32;;;;;;;15.45;13.52;;;29.30;90.10;;;;;;5030409;28;20097;-43
2022/08/18 11:48:16;;;;;;;14.90;13.10;;;29.40;90.90;;;;;;5030465;28;20025;-43
2022/08/18 11:51:09;;;;;;;15.65;13.52;;;29.30;91.10;;;;;;5030739;28;20103;-49
2022/08/18 11:53:34;;;;;;;14.48;12.98;;;29.00;90.80;;;;;;5030921;28;20492;-48
2022/08/18 11:56:18;;;;;;;19.17;15.70;;;28.50;92.20;;;;;;5028631;28;20164;-43
2022/08/18 11:58:56;;;;;;;14.85;13.25;;;28.10;91.50;;;;;;5028835;28;20079;-50
2022/08/18 12:01:49;;;;;;;19.48;15.30;;;27.90;92.30;;;;;;5027089;28;20025;-42
2022/08/18 12:04:24;;;;;;;16.20;14.30;;;28.30;91.30;;;;;;5024211;28;20555;-47
2022/08/18 12:06:59;;;;;;;17.23;14.23;;;28.50;92.60;;;;;;5030019;28;20025;-42
2022/08/18 12:09:48;;;;;;;17.40;15.35;;;28.10;91.90;;;;;;5026883;28;20034;-46
2022/08/18 12:12:29;;;;;;;17.15;14.30;;;28.00;92.00;;;;;;5030395;28;20065;-43
2022/08/18 12:15:25;;;;;;;16.88;15.07;;;27.90;92.90;;;;;;5030533;28;20056;-45
2022/08/18 12:17:51;;;;;;;19.30;15.38;;;27.40;92.30;;;;;;5030765;28;20031;-47
2022/08/18 12:20:17;;;;;;;17.30;14.45;;;27.00;92.10;;;;;;5030412;28;20052;-43
2022/08/18 12:22:44;;;;;;;16.63;13.73;;;26.60;94.00;;;;;;5029315;28;20087;-44
2022/08/18 12:25:12;;;;;;;16.08;14.30;;;26.90;94.00;;;;;;5031490;28;20049;-42
2022/08/18 12:27:40;;;;;;;17.05;14.07;;;27.10;94.00;;;;;;5034412;28;20033;-48
2022/08/18 12:30:08;;;;;;;15.80;14.13;;;27.40;93.30;;;;;;5034633;28;20082;-46
2022/08/18 12:32:35;;;;;;;18.48;12.98;;;27.60;92.50;;;;;;5034258;28;20340;-47
2022/08/18 12:35:01;;;;;;;16.67;13.40;;;28.00;92.70;;;;;;5034214;28;20022;-48
2022/08/18 12:37:28;;;;;;;15.38;13.52;;;27.70;91.50;;;;;;5033916;28;20026;-43
2022/08/18 12:39:56;;;;;;;15.75;12.45;;;26.80;92.20;;;;;;5034026;28;20032;-43
2022/08/18 12:42:22;;;;;;;14.30;12.68;;;26.40;93.20;;;;;;5034167;28;20021;-43
2022/08/18 12:44:48;;;;;;;14.75;12.02;;;26.40;94.50;;;;;;5033729;28;20025;-48
2022/08/18 12:47:15;;;;;;;13.85;11.52;;;26.70;94.30;;;;;;5031989;28;20840;-46
2022/08/18 12:49:41;;;;;;;12.43;11.02;;;26.90;92.90;;;;;;5032503;28;20029;-48
2022/08/18 12:52:08;;;;;;;11.93;10.02;;;27.10;94.70;;;;;;5032286;28;20833;-50
2022/08/18 12:54:34;;;;;;;14.35;11.88;;;27.60;94.30;;;;;;5033238;28;20068;-47
2022/08/18 12:57:01;;;;;;;14.65;12.85;;;27.90;92.10;;;;;;5032998;28;20026;-50
2022/08/18 12:59:26;;;;;;;14.27;12.77;;;27.70;91.40;;;;;;5033443;28;20028;-50
2022/08/18 13:01:52;;;;;;;14.18;12.55;;;27.20;92.70;;;;;;5033416;28;20022;-49
2022/08/18 13:04:18;;;;;;;16.88;13.82;;;26.60;93.30;;;;;;5033364;28;20366;-45
2022/08/18 13:06:50;;;;;;;17.15;13.07;;;26.50;94.60;;;;;;5033278;28;20024;-46
2022/08/18 13:09:16;;;;;;;15.00;12.98;;;26.70;93.30;;;;;;5033068;28;20021;-55